Time;durP1;ratioP1;P1;durP2;ratioP2;P2;SDS_P1;SDS_P2;PMS_P1;PMS_P2;Temp;Humidity;BMP_temperature;BMP_pressure;BME280_temperature;BME280_humidity;BME280_pressure;Samples;Min_cycle;Max_cycle;Signal;HPM_P1;HPM_P2
2024/01/22 00:02:42;;;;;;;2.30;2.30;;;;;;;;;;6186854;28;20304;-58
2024/01/22 00:05:46;;;;;;;2.70;2.60;;;;;;;;;;6187987;28;20317;-58
2024/01/22 00:08:50;;;;;;;3.13;2.77;;;;;;;;;;6187676;28;20477;-57
2024/01/22 00:11:55;;;;;;;2.93;2.80;;;;;;;;;;6187673;28;20240;-58
2024/01/22 00:15:00;;;;;;;2.60;2.50;;;;;;;;;;6187804;28;20348;-57
2024/01/22 00:18:04;;;;;;;2.63;2.37;;;;;;;;;;6187287;28;20535;-56
2024/01/22 00:21:08;;;;;;;2.67;2.57;;;;;;;;;;6187061;28;20294;-57
2024/01/22 00:24:12;;;;;;;2.87;2.53;;;;;;;;;;6161396;28;20295;-56
2024/01/22 00:27:16;;;;;;;2.60;2.40;;;;;;;;;;6163264;28;20429;-57
2024/01/22 00:30:22;;;;;;;3.00;2.80;;;;;;;;;;6163021;28;20298;-58
2024/01/22 00:33:26;;;;;;;2.93;2.73;;;;;;;;;;6139360;28;20310;-58
2024/01/22 00:36:30;;;;;;;2.90;2.80;;;;;;;;;;6139727;28;20293;-59
2024/01/22 00:39:34;;;;;;;4.60;3.03;;;;;;;;;;6139307;28;20316;-57
2024/01/22 00:42:37;;;;;;;3.03;2.90;;;;;;;;;;6138587;28;20298;-58
2024/01/22 00:45:43;;;;;;;3.30;2.90;;;;;;;;;;6139571;28;20306;-56
2024/01/22 00:48:47;;;;;;;3.47;3.30;;;;;;;;;;6139559;28;20314;-57
2024/01/22 00:51:51;;;;;;;3.93;3.60;;;;;;;;;;6140976;28;20302;-58
2024/01/22 00:54:55;;;;;;;3.80;3.50;;;;;;;;;;6163327;28;20304;-58
2024/01/22 00:57:59;;;;;;;3.53;3.40;;;;;;;;;;6162896;28;20294;-55
2024/01/22 01:01:05;;;;;;;4.63;3.27;;;;;;;;;;6162900;28;20303;-57
2024/01/22 01:04:09;;;;;;;5.40;3.73;;;;;;;;;;6162720;28;20309;-58
2024/01/22 01:07:13;;;;;;;3.90;3.50;;;;;;;;;;6160832;28;20297;-56
2024/01/22 01:10:17;;;;;;;5.23;3.90;;;;;;;;;;6162898;28;20609;-57
2024/01/22 01:13:21;;;;;;;3.70;3.40;;;;;;;;;;6162489;28;20290;-57
2024/01/22 01:16:28;;;;;;;5.37;3.40;;;;;;;;;;6162643;28;20430;-59
2024/01/22 01:19:32;;;;;;;4.30;4.00;;;;;;;;;;6162307;28;20483;-58
2024/01/22 01:22:36;;;;;;;4.27;3.93;;;;;;;;;;6169814;28;20308;-57
2024/01/22 01:25:40;;;;;;;4.00;3.70;;;;;;;;;;6186720;28;20293;-57
2024/01/22 01:28:44;;;;;;;4.23;3.90;;;;;;;;;;6186314;28;20305;-57
2024/01/22 01:31:49;;;;;;;3.90;3.70;;;;;;;;;;6186099;28;20298;-56
2024/01/22 01:34:53;;;;;;;4.03;3.80;;;;;;;;;;6186666;28;20293;-57
2024/01/22 01:37:57;;;;;;;4.00;3.77;;;;;;;;;;6186003;28;20298;-57
2024/01/22 01:41:01;;;;;;;4.37;3.80;;;;;;;;;;6186563;28;20296;-58
2024/01/22 01:44:06;;;;;;;7.47;3.73;;;;;;;;;;6185579;28;20312;-57
2024/01/22 01:47:11;;;;;;;4.73;3.70;;;;;;;;;;6185722;28;20287;-58
2024/01/22 01:50:15;;;;;;;5.43;3.60;;;;;;;;;;6185998;28;20308;-58
2024/01/22 01:53:20;;;;;;;5.57;3.53;;;;;;;;;;6186769;28;20580;-57
2024/01/22 01:56:24;;;;;;;3.97;3.70;;;;;;;;;;6191282;28;20326;-58
2024/01/22 01:59:28;;;;;;;4.00;3.73;;;;;;;;;;6190758;28;20302;-57
2024/01/22 02:02:33;;;;;;;3.60;3.50;;;;;;;;;;6191255;28;20302;-58
2024/01/22 02:05:37;;;;;;;3.20;3.10;;;;;;;;;;6190996;28;20325;-58
2024/01/22 02:08:50;;;;;;;3.50;3.40;;;;;;;;;;6189832;28;20307;-60
2024/01/22 02:11:55;;;;;;;3.80;3.60;;;;;;;;;;6190511;28;20243;-58
2024/01/22 02:14:58;;;;;;;3.63;3.43;;;;;;;;;;6190716;28;20242;-57
2024/01/22 02:18:04;;;;;;;3.60;3.40;;;;;;;;;;6190409;28;20313;-58
2024/01/22 02:21:09;;;;;;;3.77;3.57;;;;;;;;;;6190738;28;20294;-58
2024/01/22 02:24:14;;;;;;;3.37;3.27;;;;;;;;;;6189995;28;20381;-58
2024/01/22 02:27:18;;;;;;;3.63;3.43;;;;;;;;;;6190101;28;20295;-58
2024/01/22 02:30:23;;;;;;;3.93;3.63;;;;;;;;;;6190793;28;20309;-59
2024/01/22 02:33:28;;;;;;;4.20;4.00;;;;;;;;;;6190042;28;20238;-57
2024/01/22 02:36:32;;;;;;;4.30;3.90;;;;;;;;;;6190491;28;20327;-58
2024/01/22 02:39:37;;;;;;;4.97;4.40;;;;;;;;;;6189742;28;20289;-58
2024/01/22 02:42:42;;;;;;;4.60;4.30;;;;;;;;;;6189640;28;20297;-57
2024/01/22 02:45:47;;;;;;;4.40;4.07;;;;;;;;;;6189889;28;20302;-58
2024/01/22 02:48:51;;;;;;;4.83;4.53;;;;;;;;;;6189727;28;20301;-58
2024/01/22 02:51:55;;;;;;;5.90;5.23;;;;;;;;;;6189564;28;20290;-56
2024/01/22 02:55:01;;;;;;;5.27;4.77;;;;;;;;;;6189960;28;20306;-58
2024/01/22 02:58:05;;;;;;;5.13;4.73;;;;;;;;;;6189581;28;20549;-59
2024/01/22 03:01:09;;;;;;;6.03;4.90;;;;;;;;;;6190036;28;20301;-56
2024/01/22 03:04:13;;;;;;;7.17;5.07;;;;;;;;;;6189026;28;20297;-57
2024/01/22 03:07:17;;;;;;;10.23;5.30;;;;;;;;;;6189287;28;20293;-58
2024/01/22 03:10:23;;;;;;;5.63;5.10;;;;;;;;;;6189818;28;20301;-57
2024/01/22 03:13:27;;;;;;;10.03;5.27;;;;;;;;;;6189237;28;20299;-57
2024/01/22 03:16:31;;;;;;;6.43;5.23;;;;;;;;;;6189536;28;20294;-57
2024/01/22 03:19:35;;;;;;;7.07;5.80;;;;;;;;;;6189149;28;20293;-58
2024/01/22 03:22:40;;;;;;;9.23;6.20;;;;;;;;;;6188682;28;20301;-58
2024/01/22 03:25:46;;;;;;;9.53;6.07;;;;;;;;;;6189056;28;20297;-57
2024/01/22 03:28:51;;;;;;;9.03;5.77;;;;;;;;;;6189163;28;20294;-58
2024/01/22 03:31:55;;;;;;;10.33;6.70;;;;;;;;;;6188617;28;20382;-57
2024/01/22 03:34:59;;;;;;;9.03;6.13;;;;;;;;;;6189031;28;20309;-57
2024/01/22 03:38:04;;;;;;;8.30;6.93;;;;;;;;;;6188541;28;20290;-58
2024/01/22 03:41:09;;;;;;;11.73;6.17;;;;;;;;;;6171225;28;20301;-57
2024/01/22 03:44:13;;;;;;;8.33;6.23;;;;;;;;;;6187625;28;20473;-58
2024/01/22 03:47:17;;;;;;;9.87;6.07;;;;;;;;;;6188056;28;20290;-58
2024/01/22 03:50:21;;;;;;;11.10;6.93;;;;;;;;;;6188653;28;20304;-56
2024/01/22 03:53:25;;;;;;;7.37;6.30;;;;;;;;;;6188058;28;20290;-58
2024/01/22 03:56:31;;;;;;;10.57;6.00;;;;;;;;;;6188446;28;20290;-57
2024/01/22 03:59:35;;;;;;;9.53;5.97;;;;;;;;;;6187937;28;20309;-58
2024/01/22 04:02:39;;;;;;;7.70;6.30;;;;;;;;;;6187600;28;20291;-58
2024/01/22 04:05:43;;;;;;;7.37;5.67;;;;;;;;;;6185931;28;20301;-58
2024/01/22 04:08:47;;;;;;;8.00;5.63;;;;;;;;;;6187919;28;20245;-57
2024/01/22 04:11:53;;;;;;;9.03;5.57;;;;;;;;;;6188379;28;20254;-59
2024/01/22 04:14:57;;;;;;;9.37;5.30;;;;;;;;;;6187872;28;20301;-58
2024/01/22 04:18:02;;;;;;;5.63;5.10;;;;;;;;;;6187636;28;20372;-57
2024/01/22 04:21:06;;;;;;;9.13;5.30;;;;;;;;;;6187619;28;20298;-57
2024/01/22 04:24:10;;;;;;;9.40;5.37;;;;;;;;;;6187054;28;20313;-56
2024/01/22 04:27:16;;;;;;;5.83;5.07;;;;;;;;;;6187780;28;20297;-56
2024/01/22 04:30:20;;;;;;;13.50;5.17;;;;;;;;;;6187845;28;20290;-59
2024/01/22 04:33:24;;;;;;;7.07;4.83;;;;;;;;;;6187972;28;20301;-57
2024/01/22 04:36:28;;;;;;;9.77;5.50;;;;;;;;;;6187321;28;20305;-57
2024/01/22 04:39:32;;;;;;;8.23;5.00;;;;;;;;;;6187173;28;20308;-57
2024/01/22 04:42:37;;;;;;;6.13;5.53;;;;;;;;;;6187852;28;20301;-58
2024/01/22 04:45:42;;;;;;;5.10;4.70;;;;;;;;;;6187080;28;20305;-59
2024/01/22 04:48:46;;;;;;;8.37;4.97;;;;;;;;;;6186874;28;20289;-58
2024/01/22 04:51:50;;;;;;;10.50;5.10;;;;;;;;;;6187552;28;20378;-58
2024/01/22 04:54:54;;;;;;;8.60;4.77;;;;;;;;;;6186537;28;20305;-58
2024/01/22 04:58:14;;;;;;;8.17;4.73;;;;;;;;;;6187168;28;20470;-57
2024/01/22 05:01:18;;;;;;;5.87;4.97;;;;;;;;;;6186728;28;20484;-58
2024/01/22 05:04:22;;;;;;;5.50;4.90;;;;;;;;;;6186779;28;20293;-59
2024/01/22 05:07:26;;;;;;;10.43;4.57;;;;;;;;;;6187017;28;20303;-59
2024/01/22 05:10:30;;;;;;;8.70;5.00;;;;;;;;;;6186360;28;20306;-57
2024/01/22 05:13:36;;;;;;;8.37;5.00;;;;;;;;;;6168666;28;20298;-58
2024/01/22 05:16:40;;;;;;;6.97;5.07;;;;;;;;;;6187168;28;20299;-58
2024/01/22 05:19:44;;;;;;;8.50;5.30;;;;;;;;;;6186373;28;20302;-57
2024/01/22 05:22:48;;;;;;;6.13;4.90;;;;;;;;;;6186625;28;20309;-58
2024/01/22 05:25:52;;;;;;;9.03;5.13;;;;;;;;;;6186323;28;20293;-57
2024/01/22 05:28:57;;;;;;;12.63;5.53;;;;;;;;;;6186090;28;20290;-57
2024/01/22 05:32:02;;;;;;;7.27;5.17;;;;;;;;;;6186721;28;20313;-57
2024/01/22 05:35:07;;;;;;;9.73;5.43;;;;;;;;;;6186392;28;20298;-57
2024/01/22 05:38:11;;;;;;;10.47;5.40;;;;;;;;;;6186690;28;20299;-57
2024/01/22 05:41:15;;;;;;;8.80;5.73;;;;;;;;;;6186269;28;20299;-57
2024/01/22 05:44:20;;;;;;;10.00;5.67;;;;;;;;;;6185856;28;20602;-59
2024/01/22 05:47:24;;;;;;;7.37;5.43;;;;;;;;;;6186473;28;20299;-59
2024/01/22 05:50:28;;;;;;;7.93;4.83;;;;;;;;;;6185726;28;20301;-56
2024/01/22 05:53:33;;;;;;;10.53;4.70;;;;;;;;;;6185919;28;20287;-59
2024/01/22 05:56:36;;;;;;;7.17;4.63;;;;;;;;;;6186420;28;20581;-60
2024/01/22 05:59:42;;;;;;;6.40;4.57;;;;;;;;;;6185974;28;20297;-57
2024/01/22 06:02:46;;;;;;;4.37;4.07;;;;;;;;;;6185638;28;20268;-56
2024/01/22 06:05:50;;;;;;;8.23;4.20;;;;;;;;;;6185553;28;20472;-57
2024/01/22 06:08:55;;;;;;;5.67;3.53;;;;;;;;;;6185800;28;20312;-56
2024/01/22 06:11:58;;;;;;;6.00;4.40;;;;;;;;;;6185949;28;20234;-56
2024/01/22 06:15:04;;;;;;;5.57;3.73;;;;;;;;;;6185659;28;20322;-59
2024/01/22 06:18:09;;;;;;;4.63;4.17;;;;;;;;;;6186098;28;20318;-59
2024/01/22 06:21:13;;;;;;;5.80;4.27;;;;;;;;;;6185708;28;20357;-58
2024/01/22 06:24:18;;;;;;;4.30;4.00;;;;;;;;;;6185254;28;20295;-59
2024/01/22 06:27:22;;;;;;;8.30;4.50;;;;;;;;;;6185877;28;20298;-57
2024/01/22 06:30:28;;;;;;;6.70;4.00;;;;;;;;;;6185578;28;20304;-59
2024/01/22 06:33:32;;;;;;;4.37;4.00;;;;;;;;;;6185518;28;20300;-59
2024/01/22 06:36:36;;;;;;;4.50;4.10;;;;;;;;;;6186532;28;20307;-59
2024/01/22 06:39:40;;;;;;;3.83;3.33;;;;;;;;;;6186731;28;20297;-57
2024/01/22 06:42:44;;;;;;;3.80;3.60;;;;;;;;;;6172597;28;20482;-58
2024/01/22 06:45:50;;;;;;;4.37;3.63;;;;;;;;;;6189802;28;20299;-55
2024/01/22 06:48:54;;;;;;;4.20;3.30;;;;;;;;;;6189449;28;20323;-58
2024/01/22 06:51:58;;;;;;;4.00;3.30;;;;;;;;;;6190007;28;20302;-58
2024/01/22 06:55:03;;;;;;;4.07;2.87;;;;;;;;;;6190184;28;20298;-57
2024/01/22 06:58:07;;;;;;;3.03;2.93;;;;;;;;;;6190073;28;20300;-56
2024/01/22 07:01:14;;;;;;;3.63;3.17;;;;;;;;;;6189104;28;20306;-58
2024/01/22 07:04:17;;;;;;;3.70;3.30;;;;;;;;;;6189123;28;20295;-58
2024/01/22 07:07:22;;;;;;;3.70;2.87;;;;;;;;;;6189701;28;20310;-54
2024/01/22 07:10:26;;;;;;;3.23;3.00;;;;;;;;;;6189315;28;20289;-57
2024/01/22 07:13:30;;;;;;;2.47;2.30;;;;;;;;;;6189274;28;20299;-57
2024/01/22 07:16:35;;;;;;;4.67;2.80;;;;;;;;;;6189915;28;20300;-58
2024/01/22 07:19:40;;;;;;;4.63;2.47;;;;;;;;;;6189448;28;20299;-58
2024/01/22 07:22:45;;;;;;;2.90;2.60;;;;;;;;;;6188986;28;20306;-58
2024/01/22 07:25:54;;;;;;;2.40;2.20;;;;;;;;;;6188915;28;20298;-58
2024/01/22 07:28:58;;;;;;;2.60;2.50;;;;;;;;;;6171049;28;20300;-59
2024/01/22 07:32:03;;;;;;;3.37;2.50;;;;;;;;;;6189465;28;20302;-58
2024/01/22 07:35:09;;;;;;;3.33;2.93;;;;;;;;;;6188497;28;20289;-58
2024/01/22 07:38:15;;;;;;;2.70;2.60;;;;;;;;;;6189234;28;20298;-58
2024/01/22 07:41:19;;;;;;;2.87;2.73;;;;;;;;;;6189109;28;20308;-58
2024/01/22 07:44:23;;;;;;;2.80;2.60;;;;;;;;;;6188464;28;20371;-58
2024/01/22 07:47:28;;;;;;;3.10;2.77;;;;;;;;;;6188925;28;20523;-58
2024/01/22 07:50:32;;;;;;;4.00;3.20;;;;;;;;;;6187559;28;20318;-56
2024/01/22 07:53:36;;;;;;;4.00;3.20;;;;;;;;;;6187822;28;20318;-57
2024/01/22 07:56:41;;;;;;;4.57;3.63;;;;;;;;;;6188656;28;20374;-56
2024/01/22 07:59:46;;;;;;;3.47;3.37;;;;;;;;;;6187663;28;20299;-58
2024/01/22 08:02:52;;;;;;;4.17;3.80;;;;;;;;;;6188605;28;20516;-58
2024/01/22 08:05:56;;;;;;;4.23;3.97;;;;;;;;;;6187802;28;20441;-58
2024/01/22 08:09:01;;;;;;;4.83;4.13;;;;;;;;;;6169913;28;20306;-58
2024/01/22 08:12:06;;;;;;;4.13;3.83;;;;;;;;;;6188194;28;20351;-58
2024/01/22 08:15:14;;;;;;;6.37;3.73;;;;;;;;;;6187699;28;20295;-58
2024/01/22 08:18:20;;;;;;;7.60;4.20;;;;;;;;;;6188320;28;20294;-59
2024/01/22 08:21:25;;;;;;;4.17;3.83;;;;;;;;;;6187796;28;20301;-59
2024/01/22 08:24:30;;;;;;;5.93;3.37;;;;;;;;;;6187376;28;20294;-55
2024/01/22 08:27:34;;;;;;;4.37;3.80;;;;;;;;;;6187750;28;20314;-57
2024/01/22 08:30:38;;;;;;;4.00;3.60;;;;;;;;;;6187527;28;20292;-58
2024/01/22 08:33:44;;;;;;;2.93;2.80;;;;;;;;;;6187164;28;20602;-59
2024/01/22 08:36:49;;;;;;;6.33;3.27;;;;;;;;;;6187854;28;20327;-56
2024/01/22 08:39:53;;;;;;;2.53;2.43;;;;;;;;;;6186676;28;20459;-57
2024/01/22 08:42:57;;;;;;;4.03;3.17;;;;;;;;;;6187851;28;20296;-58
2024/01/22 08:46:01;;;;;;;2.80;2.40;;;;;;;;;;6187288;28;20439;-58
2024/01/22 08:49:06;;;;;;;3.00;2.90;;;;;;;;;;6187034;28;20295;-58
2024/01/22 08:52:10;;;;;;;2.90;2.67;;;;;;;;;;6187574;28;20372;-56
2024/01/22 08:55:15;;;;;;;2.30;2.30;;;;;;;;;;6187002;28;20483;-58
2024/01/22 08:58:20;;;;;;;4.63;2.50;;;;;;;;;;6187382;28;20299;-57
2024/01/22 09:01:24;;;;;;;3.20;2.43;;;;;;;;;;6187089;28;20296;-58
2024/01/22 09:04:30;;;;;;;2.80;2.60;;;;;;;;;;6186694;28;20301;-58
2024/01/22 09:07:33;;;;;;;2.70;2.50;;;;;;;;;;6187169;28;20578;-58
2024/01/22 09:10:38;;;;;;;3.60;2.77;;;;;;;;;;6186563;28;20453;-58
2024/01/22 09:13:42;;;;;;;3.03;2.70;;;;;;;;;;6186721;28;20596;-58
2024/01/22 09:16:49;;;;;;;4.43;2.50;;;;;;;;;;6187087;28;20306;-58
2024/01/22 09:19:55;;;;;;;2.63;2.50;;;;;;;;;;6186424;28;20567;-57
2024/01/22 09:23:00;;;;;;;2.43;2.33;;;;;;;;;;6170004;28;20300;-58
2024/01/22 09:26:04;;;;;;;2.43;2.33;;;;;;;;;;6186638;28;20299;-58
2024/01/22 09:29:08;;;;;;;3.60;2.50;;;;;;;;;;6186495;28;20299;-57
2024/01/22 09:32:13;;;;;;;3.00;2.23;;;;;;;;;;6187038;28;20312;-57
2024/01/22 09:35:18;;;;;;;2.00;1.97;;;;;;;;;;6186616;28;20300;-58
2024/01/22 09:38:22;;;;;;;2.40;1.97;;;;;;;;;;6186498;28;20303;-58
2024/01/22 09:41:27;;;;;;;1.87;1.87;;;;;;;;;;6186297;28;20480;-57
2024/01/22 09:44:32;;;;;;;1.83;1.83;;;;;;;;;;6186132;28;20612;-56
2024/01/22 09:47:37;;;;;;;4.50;2.30;;;;;;;;;;6186485;28;20608;-57
2024/01/22 09:50:42;;;;;;;2.13;2.00;;;;;;;;;;6185850;28;20294;-58
2024/01/22 09:53:48;;;;;;;2.13;2.03;;;;;;;;;;6185297;28;20262;-57
2024/01/22 09:56:54;;;;;;;2.83;2.00;;;;;;;;;;6186164;28;20279;-57
2024/01/22 09:59:59;;;;;;;3.60;2.33;;;;;;;;;;6185944;28;20568;-57
2024/01/22 10:03:03;;;;;;;3.23;2.57;;;;;;;;;;6186615;28;20300;-58
2024/01/22 10:06:10;;;;;;;2.00;2.00;;;;;;;;;;6185998;28;20569;-57
2024/01/22 10:09:15;;;;;;;2.37;2.27;;;;;;;;;;6185626;28;20471;-59
2024/01/22 10:12:19;;;;;;;2.17;2.07;;;;;;;;;;6173785;28;20293;-57
2024/01/22 10:15:23;;;;;;;3.00;2.30;;;;;;;;;;6164741;28;20295;-59
2024/01/22 10:18:28;;;;;;;2.20;2.07;;;;;;;;;;6167127;28;20312;-57
2024/01/22 10:21:35;;;;;;;2.20;2.10;;;;;;;;;;6166429;29;20296;-59
2024/01/22 10:24:40;;;;;;;2.00;2.00;;;;;;;;;;6165824;29;20299;-57
2024/01/22 10:27:44;;;;;;;2.07;1.97;;;;;;;;;;6167176;28;20297;-57
2024/01/22 10:31:02;;;;;;;3.90;2.10;;;;;;;;;;6166681;29;20315;-58
2024/01/22 10:34:06;;;;;;;2.20;1.97;;;;;;;;;;6166337;28;20301;-60
2024/01/22 10:37:12;;;;;;;2.50;2.30;;;;;;;;;;6166705;28;20299;-59
2024/01/22 10:40:16;;;;;;;1.97;1.97;;;;;;;;;;6166467;28;20297;-59
2024/01/22 10:43:24;;;;;;;3.67;2.23;;;;;;;;;;6166614;28;20365;-59
2024/01/22 10:46:28;;;;;;;3.00;2.13;;;;;;;;;;6166242;28;20308;-59
2024/01/22 10:49:33;;;;;;;2.10;1.90;;;;;;;;;;6164494;29;20310;-58
2024/01/22 10:52:42;;;;;;;2.23;2.13;;;;;;;;;;6166198;28;20297;-59
2024/01/22 10:55:57;;;;;;;2.97;2.40;;;;;;;;;;6165669;28;20590;-58
2024/01/22 10:59:03;;;;;;;3.60;2.00;;;;;;;;;;6166001;28;20309;-60
2024/01/22 11:02:18;;;;;;;2.37;2.27;;;;;;;;;;6165871;28;20362;-57
2024/01/22 11:05:23;;;;;;;2.47;1.93;;;;;;;;;;6165733;28;20305;-56
2024/01/22 11:08:30;;;;;;;2.73;2.00;;;;;;;;;;6166165;28;20576;-58
2024/01/22 11:11:37;;;;;;;5.10;2.47;;;;;;;;;;6180111;28;20301;-60
2024/01/22 11:14:42;;;;;;;5.30;2.80;;;;;;;;;;6189534;28;20318;-59
2024/01/22 11:17:47;;;;;;;7.00;2.70;;;;;;;;;;6189110;28;20352;-59
2024/01/22 11:21:05;;;;;;;3.13;2.30;;;;;;;;;;6189478;28;20305;-57
2024/01/22 11:24:17;;;;;;;4.97;3.10;;;;;;;;;;6188753;28;20627;-59
2024/01/22 11:27:22;;;;;;;3.30;2.53;;;;;;;;;;6189605;28;20296;-59
2024/01/22 11:30:32;;;;;;;4.30;2.70;;;;;;;;;;6190552;28;20300;-59
2024/01/22 11:33:36;;;;;;;5.13;2.50;;;;;;;;;;6191072;28;20297;-58
2024/01/22 11:36:55;;;;;;;4.40;2.67;;;;;;;;;;6190302;28;20469;-58
2024/01/22 11:40:02;;;;;;;5.10;2.70;;;;;;;;;;6171520;28;20301;-57
2024/01/22 11:43:06;;;;;;;5.87;3.00;;;;;;;;;;6189458;28;20559;-56
2024/01/22 11:46:16;;;;;;;3.77;2.63;;;;;;;;;;6190020;28;20302;-59
2024/01/22 11:49:21;;;;;;;5.07;2.47;;;;;;;;;;6189126;28;20477;-60
2024/01/22 11:52:25;;;;;;;5.83;2.40;;;;;;;;;;6185194;28;20389;-58
2024/01/22 11:55:31;;;;;;;6.13;2.40;;;;;;;;;;6188633;28;20301;-58
2024/01/22 11:58:36;;;;;;;7.27;2.47;;;;;;;;;;6187840;28;20304;-58
2024/01/22 12:01:42;;;;;;;3.43;2.03;;;;;;;;;;6187148;28;20360;-60
2024/01/22 12:04:46;;;;;;;2.67;2.23;;;;;;;;;;6188166;28;20295;-59
2024/01/22 12:07:51;;;;;;;5.13;2.30;;;;;;;;;;6188579;28;20310;-58
2024/01/22 12:11:08;;;;;;;4.07;2.20;;;;;;;;;;6187716;28;20300;-59
2024/01/22 12:14:13;;;;;;;8.03;2.00;;;;;;;;;;6188087;28;20398;-59
2024/01/22 12:17:17;;;;;;;2.03;1.93;;;;;;;;;;6188195;28;20297;-59
2024/01/22 12:20:21;;;;;;;3.90;1.90;;;;;;;;;;6187865;28;20477;-59
2024/01/22 12:23:30;;;;;;;5.00;1.90;;;;;;;;;;6188459;28;20342;-59
2024/01/22 12:26:40;;;;;;;1.63;1.53;;;;;;;;;;6188179;28;20557;-58
2024/01/22 12:29:44;;;;;;;4.13;1.87;;;;;;;;;;6186814;28;20304;-59
2024/01/22 12:32:53;;;;;;;2.93;1.90;;;;;;;;;;6187749;28;20246;-58
2024/01/22 12:36:08;;;;;;;5.13;2.10;;;;;;;;;;6187325;28;20308;-58
2024/01/22 12:39:20;;;;;;;2.73;1.60;;;;;;;;;;6186908;28;20297;-56
2024/01/22 12:42:26;;;;;;;2.13;1.70;;;;;;;;;;6187729;28;20309;-58
2024/01/22 12:45:30;;;;;;;3.93;1.23;;;;;;;;;;6187029;28;20301;-58
2024/01/22 12:48:34;;;;;;;2.47;1.50;;;;;;;;;;6186947;28;20297;-58
2024/01/22 12:51:41;;;;;;;1.40;1.40;;;;;;;;;;6187337;28;20329;-60
2024/01/22 12:54:45;;;;;;;2.77;1.47;;;;;;;;;;6187045;28;20296;-58
2024/01/22 12:57:51;;;;;;;1.90;1.70;;;;;;;;;;6187137;28;20610;-59
2024/01/22 13:00:57;;;;;;;3.13;1.40;;;;;;;;;;6186917;28;20297;-60
2024/01/22 13:04:03;;;;;;;1.30;1.30;;;;;;;;;;6186873;28;20293;-58
2024/01/22 13:07:07;;;;;;;2.83;1.63;;;;;;;;;;6187509;28;20293;-57
2024/01/22 13:10:12;;;;;;;1.30;1.30;;;;;;;;;;6186729;28;20296;-59
2024/01/22 13:13:17;;;;;;;1.17;1.17;;;;;;;;;;6186973;28;20296;-60
2024/01/22 13:16:21;;;;;;;1.50;1.40;;;;;;;;;;6186397;28;20375;-59
2024/01/22 13:19:26;;;;;;;1.43;1.33;;;;;;;;;;6186209;28;20300;-58
2024/01/22 13:22:30;;;;;;;5.07;1.50;;;;;;;;;;6169086;28;20609;-59
2024/01/22 13:25:34;;;;;;;2.63;1.43;;;;;;;;;;6186413;28;20573;-59
2024/01/22 13:28:43;;;;;;;2.83;1.50;;;;;;;;;;6186445;28;20305;-58
2024/01/22 13:31:47;;;;;;;3.77;1.50;;;;;;;;;;6186681;28;20601;-58
2024/01/22 13:34:51;;;;;;;1.10;1.10;;;;;;;;;;6185672;28;20535;-59
2024/01/22 13:37:56;;;;;;;1.67;1.30;;;;;;;;;;6186037;28;20293;-59
2024/01/22 13:41:01;;;;;;;2.23;1.30;;;;;;;;;;6185855;28;20301;-60
2024/01/22 13:44:11;;;;;;;3.80;1.20;;;;;;;;;;6185711;28;20532;-59
2024/01/22 13:47:15;;;;;;;1.17;1.17;;;;;;;;;;6185819;28;20305;-58
2024/01/22 13:50:36;;;;;;;4.07;1.13;;;;;;;;;;6189108;28;20293;-59
2024/01/22 13:53:40;;;;;;;1.67;1.23;;;;;;;;;;6190917;28;20293;-60
2024/01/22 13:56:44;;;;;;;1.90;1.43;;;;;;;;;;6190494;28;20274;-59
2024/01/22 13:59:49;;;;;;;1.37;1.37;;;;;;;;;;6190540;28;20301;-59
2024/01/22 14:02:53;;;;;;;2.20;1.10;;;;;;;;;;6174226;28;20297;-59
2024/01/22 14:05:57;;;;;;;3.55;1.60;;;;;;;;;;6189216;28;20484;-60
2024/01/22 14:09:03;;;;;;;2.17;1.00;;;;;;;;;;6190149;28;20406;-58
2024/01/22 14:12:09;;;;;;;1.70;1.10;;;;;;;;;;6190520;28;20594;-59
2024/01/22 14:15:15;;;;;;;2.93;1.30;;;;;;;;;;6191080;28;20302;-56
2024/01/22 14:18:22;;;;;;;3.73;1.20;;;;;;;;;;6189800;28;20575;-58
2024/01/22 14:21:27;;;;;;;2.83;1.42;;;;;;;;;;6173672;28;20297;-58
2024/01/22 14:24:31;;;;;;;2.50;1.17;;;;;;;;;;6189716;28;20297;-58
2024/01/22 14:27:36;;;;;;;1.73;1.40;;;;;;;;;;6190766;28;20309;-57
2024/01/22 14:30:42;;;;;;;1.20;1.10;;;;;;;;;;6189346;28;20293;-58
2024/01/22 14:33:48;;;;;;;1.70;1.00;;;;;;;;;;6172552;28;20301;-59
2024/01/22 14:36:52;;;;;;;1.53;1.47;;;;;;;;;;6190315;28;20452;-58
2024/01/22 14:39:56;;;;;;;3.60;1.30;;;;;;;;;;6189764;28;20308;-58
2024/01/22 14:43:01;;;;;;;1.37;1.27;;;;;;;;;;6190620;28;20305;-59
2024/01/22 14:46:07;;;;;;;1.65;1.40;;;;;;;;;;6188387;28;20301;-58
2024/01/22 14:49:11;;;;;;;4.07;1.27;;;;;;;;;;6189875;28;20584;-59
2024/01/22 14:52:23;;;;;;;1.20;1.10;;;;;;;;;;6190050;28;20303;-57
2024/01/22 14:55:30;;;;;;;3.40;1.00;;;;;;;;;;6189143;28;20301;-60
2024/01/22 14:58:34;;;;;;;2.03;1.20;;;;;;;;;;6188426;28;20293;-59
2024/01/22 15:01:40;;;;;;;1.33;1.33;;;;;;;;;;6187895;28;20298;-59
2024/01/22 15:04:46;;;;;;;8.43;1.20;;;;;;;;;;6178204;28;20289;-59
2024/01/22 15:07:50;;;;;;;2.33;1.20;;;;;;;;;;6187801;28;20361;-57
2024/01/22 15:10:54;;;;;;;2.57;1.40;;;;;;;;;;6187748;28;20298;-58
2024/01/22 15:13:58;;;;;;;6.50;2.37;;;;;;;;;;6187577;28;20316;-60
2024/01/22 15:17:04;;;;;;;2.30;1.20;;;;;;;;;;6188032;28;20609;-57
2024/01/22 15:20:09;;;;;;;3.40;1.50;;;;;;;;;;6187651;28;20301;-58
2024/01/22 15:23:16;;;;;;;5.10;1.40;;;;;;;;;;6188106;28;20302;-60
2024/01/22 15:26:22;;;;;;;1.42;1.30;;;;;;;;;;6187755;28;20297;-59
2024/01/22 15:29:26;;;;;;;1.75;1.50;;;;;;;;;;6187338;28;20468;-59
2024/01/22 15:32:32;;;;;;;2.30;1.57;;;;;;;;;;6187684;28;20594;-59
2024/01/22 15:35:36;;;;;;;2.25;1.20;;;;;;;;;;6187063;28;20302;-59
2024/01/22 15:38:44;;;;;;;7.17;1.50;;;;;;;;;;6187028;28;20297;-60
2024/01/22 15:41:50;;;;;;;5.78;1.70;;;;;;;;;;6186915;28;20400;-58
2024/01/22 15:44:54;;;;;;;2.50;1.33;;;;;;;;;;6186874;28;20302;-59
2024/01/22 15:48:00;;;;;;;4.10;1.20;;;;;;;;;;6187440;28;20297;-58
2024/01/22 15:51:05;;;;;;;3.00;1.57;;;;;;;;;;6169536;28;20297;-59
2024/01/22 15:54:09;;;;;;;7.63;1.63;;;;;;;;;;6186462;28;20404;-58
2024/01/22 15:57:13;;;;;;;4.63;1.80;;;;;;;;;;6187261;28;20297;-59
2024/01/22 16:00:18;;;;;;;3.55;1.33;;;;;;;;;;6186408;28;20293;-59
2024/01/22 16:03:24;;;;;;;3.77;1.63;;;;;;;;;;6186869;28;20293;-60
2024/01/22 16:06:28;;;;;;;4.43;1.40;;;;;;;;;;6186716;28;20290;-60
2024/01/22 16:09:33;;;;;;;6.93;1.60;;;;;;;;;;6188313;28;20297;-59
2024/01/22 16:12:38;;;;;;;6.70;1.53;;;;;;;;;;6186473;28;20297;-58
2024/01/22 16:15:42;;;;;;;6.27;1.80;;;;;;;;;;6186232;28;20295;-61
2024/01/22 16:18:47;;;;;;;5.87;1.80;;;;;;;;;;6186187;28;20293;-60
2024/01/22 16:21:52;;;;;;;6.33;1.50;;;;;;;;;;6186218;28;20293;-59
2024/01/22 16:24:57;;;;;;;9.27;2.05;;;;;;;;;;6185807;28;20302;-58
2024/01/22 16:28:01;;;;;;;6.10;1.73;;;;;;;;;;6186564;28;20299;-58
2024/01/22 16:31:06;;;;;;;8.63;2.13;;;;;;;;;;6186273;28;20302;-59
2024/01/22 16:34:12;;;;;;;3.53;1.50;;;;;;;;;;6186077;28;20297;-60
2024/01/22 16:37:16;;;;;;;4.97;1.83;;;;;;;;;;6186467;28;20302;-59
2024/01/22 16:40:22;;;;;;;7.30;2.40;;;;;;;;;;6177028;28;20461;-59
2024/01/22 16:43:26;;;;;;;6.40;2.33;;;;;;;;;;6186823;28;20301;-59
2024/01/22 16:46:30;;;;;;;7.33;2.40;;;;;;;;;;6185630;28;20453;-59
2024/01/22 16:49:36;;;;;;;14.97;2.50;;;;;;;;;;6185455;28;20321;-59
2024/01/22 16:52:40;;;;;;;10.93;2.27;;;;;;;;;;6185968;28;20297;-57
2024/01/22 16:55:44;;;;;;;8.45;2.25;;;;;;;;;;6185538;28;20294;-59
2024/01/22 16:58:48;;;;;;;12.82;2.28;;;;;;;;;;6185446;28;20585;-57
2024/01/22 17:01:56;;;;;;;11.70;2.45;;;;;;;;;;6184932;28;20486;-59
2024/01/22 17:05:01;;;;;;;10.47;2.60;;;;;;;;;;6176855;28;20562;-59
2024/01/22 17:08:06;;;;;;;8.65;2.75;;;;;;;;;;6185322;28;20298;-59
2024/01/22 17:11:11;;;;;;;16.63;2.88;;;;;;;;;;6184665;28;20293;-58
2024/01/22 17:14:16;;;;;;;11.93;2.75;;;;;;;;;;6184802;28;20298;-59
2024/01/22 17:17:21;;;;;;;15.77;3.45;;;;;;;;;;6185564;28;20294;-58
2024/01/22 17:20:26;;;;;;;12.18;3.28;;;;;;;;;;6167385;28;20301;-59
2024/01/22 17:23:38;;;;;;;9.57;2.75;;;;;;;;;;6184236;28;20301;-59
2024/01/22 17:26:43;;;;;;;14.00;3.13;;;;;;;;;;6184559;28;20301;-60
2024/01/22 17:29:47;;;;;;;17.90;3.97;;;;;;;;;;6184694;28;20585;-60
2024/01/22 17:32:52;;;;;;;15.30;3.00;;;;;;;;;;6185379;28;20281;-60
2024/01/22 17:35:57;;;;;;;16.95;3.75;;;;;;;;;;6183943;28;20293;-60
2024/01/22 17:39:02;;;;;;;19.85;3.40;;;;;;;;;;6184710;28;20301;-59
2024/01/22 17:42:08;;;;;;;23.40;3.58;;;;;;;;;;6185344;28;20294;-58
2024/01/22 17:45:14;;;;;;;13.23;3.28;;;;;;;;;;6184706;28;20301;-59
2024/01/22 17:48:20;;;;;;;17.27;3.78;;;;;;;;;;6185099;28;20301;-58
2024/01/22 17:51:25;;;;;;;22.92;3.60;;;;;;;;;;6184398;28;20405;-59
2024/01/22 17:54:30;;;;;;;14.32;3.30;;;;;;;;;;6184130;28;20297;-59
2024/01/22 17:57:34;;;;;;;19.13;4.15;;;;;;;;;;6184874;28;20302;-59
2024/01/22 18:00:39;;;;;;;19.98;3.58;;;;;;;;;;6184621;28;20301;-58
2024/01/22 18:03:43;;;;;;;23.30;3.80;;;;;;;;;;6184151;28;20290;-58
2024/01/22 18:06:51;;;;;;;24.55;4.25;;;;;;;;;;6185047;28;20313;-58
2024/01/22 18:09:55;;;;;;;24.50;4.25;;;;;;;;;;6166804;28;20464;-59
2024/01/22 18:13:00;;;;;;;22.65;4.13;;;;;;;;;;6183750;28;20293;-57
2024/01/22 18:16:05;;;;;;;13.23;3.60;;;;;;;;;;6183760;28;20322;-56
2024/01/22 18:19:09;;;;;;;21.70;3.78;;;;;;;;;;6184778;28;20294;-59
2024/01/22 18:22:16;;;;;;;24.48;4.20;;;;;;;;;;6184545;28;20302;-58
2024/01/22 18:25:20;;;;;;;15.77;3.38;;;;;;;;;;6184051;28;20297;-57
2024/01/22 18:28:24;;;;;;;19.60;3.97;;;;;;;;;;6184652;28;20301;-59